Impacts TAF Board INFO
FOR SITUATIONAL AWARENESS. NOT TO BE USED FOR FLIGHT PLANNING PURPOSES.
IDs:

KPHX - Phoenix/Sky Harbor, AZ, US

Issued at 1736 UTC 16 Aug 2018
Updated at 2019 UTC 16 Aug 2018
Potential Impact None Slight Moderate High
Time<<17/21Z 17/22Z 17/23Z 18/00Z 18/01Z 18/02Z 18/03Z 18/04Z 18/05Z 18/06Z 18/07Z 18/08Z 18/09Z
Type PRVL PRVL PRVL
VIS >6 >6 >6
CIG 250 250 250
Cover BKN BKN BKN
FltCat VFR VFR VFR
WX -- -- --
WDir 250 250 250
WSpd 6 6 6
WGst -- -- --

Raw TAF
KPHX 161736Z 1618/1724 26007KT P6SM FEW150 BKN200
  FM170000 23018G28KT P6SM SCT100 SCT150 SCT250
  FM170200 25006KT P6SM SCT080 SCT150 BKN250


METAR Board
Radar Display
Forecast Discussion

FOR SITUATIONAL AWARENESS. NOT TO BE USED FOR FLIGHT PLANNING PURPOSES.